Time;durP1;ratioP1;P1;durP2;ratioP2;P2;SDS_P1;SDS_P2;PMS_P1;PMS_P2;Temp;Humidity;BMP_temperature;BMP_pressure;BME280_temperature;BME280_humidity;BME280_pressure;Samples;Min_cycle;Max_cycle;Signal;HPM_P1;HPM_P2
2022/07/20 00:01:57;;;;;;;;;;;;;;;32.00;31.65;98830.25;5053657;28;20404;-40
2022/07/20 00:04:22;;;;;;;;;;;;;;;32.25;31.13;98831.53;5054057;28;19994;-40
2022/07/20 00:06:47;;;;;;;;;;;;;;;32.74;31.32;98835.16;5053374;28;19960;-40
2022/07/20 00:11:57;;;;;;;;;;;;;;;33.17;30.59;98832.31;5053646;28;19970;-40
2022/07/20 00:14:22;;;;;;;;;;;;;;;32.52;31.75;98831.72;5053536;28;19916;-40
2022/07/20 00:16:47;;;;;;;;;;;;;;;32.25;32.12;98825.34;5052329;28;19939;-40
2022/07/20 00:19:12;;;;;;;;;;;;;;;32.41;31.50;98829.56;5053275;28;19923;-40
2022/07/20 00:21:38;;;;;;;;;;;;;;;32.52;31.97;98825.56;5053438;28;20464;-40
2022/07/20 00:24:03;;;;;;;;;;;;;;;32.27;32.06;98828.66;5053157;28;19923;-40
2022/07/20 00:26:28;;;;;;;;;;;;;;;32.60;31.40;98828.09;5053070;28;19916;-40
2022/07/20 00:28:53;;;;;;;;;;;;;;;32.66;31.22;98825.47;5053463;28;19912;-40
2022/07/20 00:31:19;;;;;;;;;;;;;;;32.34;31.65;98824.19;5053224;28;19921;-40
2022/07/20 00:33:46;;;;;;;;;;;;;;;32.66;31.63;98816.63;5053299;28;19916;-40
2022/07/20 00:36:13;;;;;;;;;;;;;;;32.29;31.79;98815.94;5053147;28;20831;-40
2022/07/20 00:38:38;;;;;;;;;;;;;;;32.31;32.22;98813.91;5053661;28;19921;-40
2022/07/20 00:41:03;;;;;;;;;;;;;;;32.42;31.81;98809.91;5052539;28;19969;-40
2022/07/20 00:43:29;;;;;;;;;;;;;;;32.05;32.06;98818.03;5053613;28;19916;-40
2022/07/20 00:45:54;;;;;;;;;;;;;;;32.09;31.86;98808.66;5052374;28;19928;-41
2022/07/20 00:48:20;;;;;;;;;;;;;;;32.32;31.82;98809.41;5053362;28;19918;-40
2022/07/20 00:50:45;;;;;;;;;;;;;;;31.73;32.38;98822.00;5052495;28;20023;-40
2022/07/20 00:53:10;;;;;;;;;;;;;;;32.22;32.21;98807.91;5051964;28;19917;-42
2022/07/20 00:55:35;;;;;;;;;;;;;;;32.08;32.35;98809.66;5052700;28;19920;-40
2022/07/20 00:58:01;;;;;;;;;;;;;;;32.11;32.02;98819.09;5053316;28;20011;-40
2022/07/20 01:00:26;;;;;;;;;;;;;;;32.18;32.29;98811.16;5052764;28;19920;-40
2022/07/20 01:02:51;;;;;;;;;;;;;;;32.49;31.49;98810.78;5053006;28;19923;-40
2022/07/20 01:05:16;;;;;;;;;;;;;;;32.13;32.34;98810.91;5053603;28;19947;-40
2022/07/20 01:07:46;;;;;;;;;;;;;;;32.53;31.42;98813.91;5052027;28;19917;-40
2022/07/20 01:10:12;;;;;;;;;;;;;;;32.43;31.96;98814.22;5051787;28;20485;-40
2022/07/20 01:12:38;;;;;;;;;;;;;;;32.25;31.68;98810.22;5053269;28;20145;-40
2022/07/20 01:15:05;;;;;;;;;;;;;;;32.04;31.80;98797.72;5052796;28;19943;-40
2022/07/20 01:17:30;;;;;;;;;;;;;;;32.16;31.87;98799.84;5053016;28;19917;-40
2022/07/20 01:19:55;;;;;;;;;;;;;;;31.66;31.71;98803.31;5052359;28;19936;-40
2022/07/20 01:22:20;;;;;;;;;;;;;;;31.76;31.79;98797.66;5053185;28;20497;-40
2022/07/20 01:24:46;;;;;;;;;;;;;;;32.31;31.59;98789.94;5053080;28;19916;-40
2022/07/20 01:27:11;;;;;;;;;;;;;;;31.92;32.19;98798.41;5053388;28;19917;-40
2022/07/20 01:29:36;;;;;;;;;;;;;;;32.27;31.72;98792.19;5052808;28;19917;-40
2022/07/20 01:32:01;;;;;;;;;;;;;;;32.30;31.71;98796.28;5053113;28;19965;-40
2022/07/20 01:34:26;;;;;;;;;;;;;;;32.27;31.52;98791.34;5053205;28;19917;-40
2022/07/20 01:36:52;;;;;;;;;;;;;;;32.06;31.61;98790.38;5052551;28;19950;-40
2022/07/20 01:39:17;;;;;;;;;;;;;;;32.25;31.84;98788.03;5052762;28;20820;-40
2022/07/20 01:41:42;;;;;;;;;;;;;;;31.88;31.81;98789.97;5052984;28;19912;-40
2022/07/20 01:44:07;;;;;;;;;;;;;;;32.13;31.34;98789.59;5052563;28;19940;-40
2022/07/20 01:46:33;;;;;;;;;;;;;;;32.21;31.74;98784.13;5053198;28;20305;-40
2022/07/20 01:48:58;;;;;;;;;;;;;;;32.82;30.79;98787.00;5054223;28;20027;-40
2022/07/20 01:51:23;;;;;;;;;;;;;;;32.35;30.79;98785.88;5055103;28;20011;-40
2022/07/20 01:53:48;;;;;;;;;;;;;;;32.10;31.31;98790.81;5056180;28;20553;-40
2022/07/20 01:56:13;;;;;;;;;;;;;;;31.91;32.01;98791.44;5056408;28;19928;-40
2022/07/20 01:58:39;;;;;;;;;;;;;;;32.49;31.55;98790.25;5056229;28;19927;-40
2022/07/20 02:01:04;;;;;;;;;;;;;;;31.93;32.06;98795.53;5056336;28;19923;-40
2022/07/20 02:03:29;;;;;;;;;;;;;;;32.37;32.26;98781.16;5056109;28;19924;-40
2022/07/20 02:05:56;;;;;;;;;;;;;;;31.98;32.38;98782.53;5055269;28;20226;-40
2022/07/20 02:08:25;;;;;;;;;;;;;;;31.48;32.74;98781.63;5054631;28;19921;-40
2022/07/20 02:10:50;;;;;;;;;;;;;;;31.72;33.11;98782.25;5055629;28;20076;-40
2022/07/20 02:13:15;;;;;;;;;;;;;;;32.13;32.29;98784.28;5056109;28;20040;-40
2022/07/20 02:18:25;;;;;;;;;;;;;;;32.09;32.61;98779.34;5055955;28;20027;-40
2022/07/20 02:20:50;;;;;;;;;;;;;;;31.66;32.33;98783.84;5055527;28;19920;-40
2022/07/20 02:23:15;;;;;;;;;;;;;;;31.42;32.55;98777.88;5055507;28;20007;-40
2022/07/20 02:25:40;;;;;;;;;;;;;;;32.62;31.86;98778.06;5056035;28;19919;-40
2022/07/20 02:28:06;;;;;;;;;;;;;;;31.73;32.49;98774.09;5056026;28;19916;-40
2022/07/20 02:30:31;;;;;;;;;;;;;;;32.16;32.14;98775.88;5055039;28;19991;-40
2022/07/20 02:32:56;;;;;;;;;;;;;;;31.36;33.66;98775.09;5054773;28;19916;-40
2022/07/20 02:35:22;;;;;;;;;;;;;;;31.70;32.86;98773.63;5055031;28;19928;-40
2022/07/20 02:37:47;;;;;;;;;;;;;;;32.25;32.54;98766.72;5054065;28;19927;-40
2022/07/20 02:40:12;;;;;;;;;;;;;;;31.90;32.88;98774.63;5055116;28;19917;-40
2022/07/20 02:42:37;;;;;;;;;;;;;;;31.58;33.39;98771.47;5054495;28;19920;-40
2022/07/20 02:45:03;;;;;;;;;;;;;;;31.98;32.55;98773.72;5055146;28;19912;-40
2022/07/20 02:47:28;;;;;;;;;;;;;;;31.57;33.05;98777.81;5054675;28;19916;-40
2022/07/20 02:49:53;;;;;;;;;;;;;;;31.60;32.92;98780.09;5054645;28;19917;-40
2022/07/20 02:52:18;;;;;;;;;;;;;;;31.55;33.16;98774.53;5054297;28;19961;-40
2022/07/20 02:54:44;;;;;;;;;;;;;;;31.74;32.89;98780.22;5054622;28;19916;-40
2022/07/20 02:57:09;;;;;;;;;;;;;;;31.70;33.31;98781.63;5054948;28;19916;-40
2022/07/20 02:59:34;;;;;;;;;;;;;;;30.99;33.45;98776.94;5052917;28;19920;-40
2022/07/20 03:01:59;;;;;;;;;;;;;;;31.51;33.04;98773.25;5054277;28;20389;-40
2022/07/20 03:04:24;;;;;;;;;;;;;;;31.05;33.54;98771.69;5054923;28;20397;-40
2022/07/20 03:06:50;;;;;;;;;;;;;;;31.49;33.42;98769.94;5054586;28;19916;-40
2022/07/20 03:09:15;;;;;;;;;;;;;;;31.47;33.39;98769.31;5054092;28;19938;-40
2022/07/20 03:11:40;;;;;;;;;;;;;;;31.22;34.05;98766.97;5054050;28;19917;-40
2022/07/20 03:14:05;;;;;;;;;;;;;;;31.54;33.22;98770.19;5054363;28;20015;-40
2022/07/20 03:16:31;;;;;;;;;;;;;;;30.76;34.17;98772.53;5054137;28;19987;-40
2022/07/20 03:18:56;;;;;;;;;;;;;;;31.34;33.52;98767.31;5053425;28;19952;-40
2022/07/20 03:21:21;;;;;;;;;;;;;;;31.52;33.17;98771.41;5054186;28;19959;-40
2022/07/20 03:23:46;;;;;;;;;;;;;;;31.11;33.79;98772.81;5054383;28;20012;-40
2022/07/20 03:26:12;;;;;;;;;;;;;;;31.37;33.47;98774.09;5054311;28;19928;-40
2022/07/20 03:28:37;;;;;;;;;;;;;;;31.42;33.68;98771.72;5052711;28;19922;-40
2022/07/20 03:31:02;;;;;;;;;;;;;;;31.22;34.11;98769.63;5053473;28;19931;-40
2022/07/20 03:33:27;;;;;;;;;;;;;;;30.96;33.60;98772.00;5053879;28;19956;-40
2022/07/20 03:35:53;;;;;;;;;;;;;;;31.11;33.94;98771.94;5052475;28;19932;-40
2022/07/20 03:38:18;;;;;;;;;;;;;;;31.44;33.67;98769.69;5053689;28;20361;-40
2022/07/20 03:40:43;;;;;;;;;;;;;;;31.00;34.10;98775.94;5051775;28;19954;-40
2022/07/20 03:43:08;;;;;;;;;;;;;;;31.13;33.59;98775.25;5054149;28;19916;-40
2022/07/20 03:45:34;;;;;;;;;;;;;;;31.08;34.16;98775.00;5053295;28;19992;-40
2022/07/20 03:47:59;;;;;;;;;;;;;;;30.94;34.31;98779.34;5053810;28;19963;-40
2022/07/20 03:50:24;;;;;;;;;;;;;;;31.44;33.54;98775.03;5053599;28;19971;-40
2022/07/20 03:52:49;;;;;;;;;;;;;;;31.38;33.46;98781.06;5053162;28;20447;-40
2022/07/20 03:55:15;;;;;;;;;;;;;;;30.99;34.20;98777.75;5053261;28;19920;-40
2022/07/20 03:57:40;;;;;;;;;;;;;;;32.21;32.69;98779.63;5053216;28;20827;-40
2022/07/20 04:00:06;;;;;;;;;;;;;;;31.38;33.24;98781.06;5053086;28;20947;-40
2022/07/20 04:02:31;;;;;;;;;;;;;;;31.52;33.62;98784.72;5053279;28;20492;-40
2022/07/20 04:04:56;;;;;;;;;;;;;;;31.12;33.67;98782.41;5052621;28;19924;-40
2022/07/20 04:07:21;;;;;;;;;;;;;;;31.60;33.31;98788.09;5052787;28;20433;-40
2022/07/20 04:09:47;;;;;;;;;;;;;;;31.60;32.95;98780.09;5053048;28;20407;-40
2022/07/20 04:12:13;;;;;;;;;;;;;;;31.48;33.20;98781.63;5052888;28;20389;-40
2022/07/20 04:14:39;;;;;;;;;;;;;;;31.45;33.55;98787.31;5053253;28;19974;-40
2022/07/20 04:17:04;;;;;;;;;;;;;;;31.71;32.89;98791.28;5052759;28;19920;-40
2022/07/20 04:19:30;;;;;;;;;;;;;;;31.85;32.65;98793.84;5053142;28;19916;-40
2022/07/20 04:21:55;;;;;;;;;;;;;;;31.45;33.86;98792.63;5053017;28;19923;-40
2022/07/20 04:24:21;;;;;;;;;;;;;;;31.45;33.87;98792.63;5051893;28;20011;-40
2022/07/20 04:26:46;;;;;;;;;;;;;;;31.49;33.12;98783.25;5052731;28;19959;-40
2022/07/20 04:29:12;;;;;;;;;;;;;;;31.88;32.47;98782.81;5053003;28;19917;-40
2022/07/20 04:31:37;;;;;;;;;;;;;;;31.34;33.56;98785.09;5053589;28;19982;-40
2022/07/20 04:34:02;;;;;;;;;;;;;;;31.15;33.86;98792.69;5053401;28;19923;-40
2022/07/20 04:36:28;;;;;;;;;;;;;;;31.25;33.17;98776.44;5053250;28;19925;-40
2022/07/20 04:38:53;;;;;;;;;;;;;;;31.53;33.89;98784.53;5052563;28;20274;-40
2022/07/20 04:41:18;;;;;;;;;;;;;;;31.96;33.05;98775.72;5053079;28;19916;-40
2022/07/20 04:43:43;;;;;;;;;;;;;;;31.75;33.27;98780.03;5053101;28;19923;-40
2022/07/20 04:46:08;;;;;;;;;;;;;;;32.45;32.23;98772.19;5053451;28;19931;-40
2022/07/20 04:48:34;;;;;;;;;;;;;;;32.15;32.96;98777.72;5052879;28;20018;-40
2022/07/20 04:50:59;;;;;;;;;;;;;;;32.04;32.89;98781.72;5051822;28;19951;-40
2022/07/20 04:53:24;;;;;;;;;;;;;;;32.12;32.77;98782.63;5053538;28;20015;-40
2022/07/20 04:55:49;;;;;;;;;;;;;;;32.53;32.36;98788.06;5051062;28;20015;-40
2022/07/20 04:58:14;;;;;;;;;;;;;;;32.53;32.59;98788.06;5053550;28;19919;-40
2022/07/20 05:00:40;;;;;;;;;;;;;;;32.98;31.71;98788.50;5052188;28;20011;-40
2022/07/20 05:03:05;;;;;;;;;;;;;;;32.82;31.84;98789.66;5053199;28;20412;-40
2022/07/20 05:05:30;;;;;;;;;;;;;;;32.88;31.64;98798.72;5051894;28;20289;-40
2022/07/20 05:07:55;;;;;;;;;;;;;;;32.53;32.35;98797.91;5053505;28;20270;-40
2022/07/20 05:10:21;;;;;;;;;;;;;;;32.96;32.10;98793.22;5051547;28;19989;-40
2022/07/20 05:12:46;;;;;;;;;;;;;;;32.86;31.99;98792.75;5053643;28;19916;-40
2022/07/20 05:15:11;;;;;;;;;;;;;;;33.15;31.63;98794.34;5050555;28;19956;-40
2022/07/20 05:17:36;;;;;;;;;;;;;;;33.18;31.57;98793.94;5053092;28;19992;-40
2022/07/20 05:20:02;;;;;;;;;;;;;;;32.38;31.70;98788.13;5052657;28;19992;-40
2022/07/20 05:22:27;;;;;;;;;;;;;;;32.67;32.20;98788.97;5052993;28;19920;-44
2022/07/20 05:24:52;;;;;;;;;;;;;;;32.40;31.52;98785.28;5058178;28;20366;-40
2022/07/20 05:27:18;;;;;;;;;;;;;;;33.38;30.92;98787.84;5057024;28;20769;-40
2022/07/20 05:29:43;;;;;;;;;;;;;;;33.08;31.25;98783.63;5056268;28;19916;-40
2022/07/20 05:32:08;;;;;;;;;;;;;;;32.68;31.55;98787.94;5057134;28;19958;-40
2022/07/20 05:34:33;;;;;;;;;;;;;;;33.64;30.22;98790.59;5056380;28;19951;-40
2022/07/20 05:36:59;;;;;;;;;;;;;;;33.49;30.49;98797.94;5056396;28;20509;-40
2022/07/20 05:39:24;;;;;;;;;;;;;;;33.44;29.96;98803.06;5056312;28;20043;-40
2022/07/20 05:41:49;;;;;;;;;;;;;;;34.00;29.91;98802.72;5056943;28;19917;-40
2022/07/20 05:44:14;;;;;;;;;;;;;;;33.30;29.93;98797.69;5056081;28;20308;-40
2022/07/20 05:46:39;;;;;;;;;;;;;;;33.38;29.81;98795.84;5056695;28;19924;-40
2022/07/20 05:49:05;;;;;;;;;;;;;;;33.67;29.50;98792.03;5055830;28;20175;-40
2022/07/20 05:51:30;;;;;;;;;;;;;;;33.11;29.19;98793.09;5056147;28;19969;-40
2022/07/20 05:53:55;;;;;;;;;;;;;;;34.04;28.84;98806.66;5055233;28;19958;-40
2022/07/20 05:56:21;;;;;;;;;;;;;;;33.37;28.48;98787.03;5056713;28;19920;-40
2022/07/20 05:58:46;;;;;;;;;;;;;;;33.76;28.69;98801.50;5056569;28;19939;-40
2022/07/20 06:01:11;;;;;;;;;;;;;;;34.36;28.34;98796.16;5056590;28;19952;-40
2022/07/20 06:03:36;;;;;;;;;;;;;;;33.78;28.56;98804.81;5056378;28;19959;-40
2022/07/20 06:06:01;;;;;;;;;;;;;;;33.93;28.09;98800.06;5055931;28;19963;-40
2022/07/20 06:08:27;;;;;;;;;;;;;;;34.77;27.88;98816.47;5056479;28;20370;-40
2022/07/20 06:10:52;;;;;;;;;;;;;;;34.91;27.41;98810.03;5055722;28;20027;-40
2022/07/20 06:13:17;;;;;;;;;;;;;;;34.86;27.63;98812.53;5055967;28;20043;-40
2022/07/20 06:15:42;;;;;;;;;;;;;;;34.21;28.12;98815.09;5055963;28;20702;-40
2022/07/20 06:18:08;;;;;;;;;;;;;;;34.88;27.95;98805.13;5056011;28;19927;-40
2022/07/20 06:20:35;;;;;;;;;;;;;;;34.70;28.39;98813.81;5054979;28;19923;-40
2022/07/20 06:23:00;;;;;;;;;;;;;;;34.51;28.27;98818.16;5055617;28;20180;-40
2022/07/20 06:25:26;;;;;;;;;;;;;;;34.80;28.24;98824.06;5055613;28;20386;-40
2022/07/20 06:27:51;;;;;;;;;;;;;;;35.66;27.31;98822.09;5055325;28;19928;-40
2022/07/20 06:30:16;;;;;;;;;;;;;;;35.01;28.10;98847.06;5055794;28;20057;-40
2022/07/20 06:32:42;;;;;;;;;;;;;;;36.27;26.75;98855.50;5055858;28;19916;-40
2022/07/20 06:35:07;;;;;;;;;;;;;;;36.69;26.65;98858.44;5056032;28;19920;-40
2022/07/20 06:37:33;;;;;;;;;;;;;;;36.80;26.24;98855.84;5054368;28;19956;-40
2022/07/20 06:39:58;;;;;;;;;;;;;;;37.03;26.50;98862.41;5055065;28;19921;-40
2022/07/20 06:42:23;;;;;;;;;;;;;;;37.05;26.23;98861.13;5055394;28;19946;-40
2022/07/20 06:44:48;;;;;;;;;;;;;;;36.73;27.32;98855.09;5054988;28;19916;-40
2022/07/20 06:47:14;;;;;;;;;;;;;;;36.08;27.53;98852.72;5055287;28;19921;-40
2022/07/20 06:49:39;;;;;;;;;;;;;;;36.74;27.11;98850.53;5055210;28;20353;-40
2022/07/20 06:52:04;;;;;;;;;;;;;;;35.62;28.77;98859.22;5053363;28;19917;-40
2022/07/20 06:54:30;;;;;;;;;;;;;;;35.81;28.15;98863.63;5055321;28;19969;-41
2022/07/20 06:56:55;;;;;;;;;;;;;;;37.72;26.59;98873.75;5054563;28;19921;-40
2022/07/20 06:59:20;;;;;;;;;;;;;;;38.01;26.53;98877.47;5053786;28;19928;-40
2022/07/20 07:01:46;;;;;;;;;;;;;;;38.20;25.87;98880.09;5055416;28;19916;-40
2022/07/20 07:04:11;;;;;;;;;;;;;;;38.54;26.11;98886.56;5054615;28;19916;-40
2022/07/20 07:06:36;;;;;;;;;;;;;;;37.98;26.48;98890.56;5054458;28;20436;-40
2022/07/20 07:09:01;;;;;;;;;;;;;;;38.22;26.06;98903.00;5054261;28;19966;-40
2022/07/20 07:11:27;;;;;;;;;;;;;;;38.84;26.64;98901.78;5054812;28;19920;-40
2022/07/20 07:13:52;;;;;;;;;;;;;;;38.89;25.66;98899.22;5054355;28;19962;-40
2022/07/20 07:16:17;;;;;;;;;;;;;;;39.35;25.85;98908.28;5054651;28;19924;-40
2022/07/20 07:18:43;;;;;;;;;;;;;;;40.01;25.31;98891.72;5054608;28;19924;-40
2022/07/20 07:21:08;;;;;;;;;;;;;;;39.86;25.41;98900.38;5054384;28;20198;-40
2022/07/20 07:23:33;;;;;;;;;;;;;;;39.98;25.61;98903.00;5052926;28;20404;-41
2022/07/20 07:25:58;;;;;;;;;;;;;;;39.21;25.33;98896.94;5054212;28;19916;-40
2022/07/20 07:28:24;;;;;;;;;;;;;;;39.57;24.99;98900.34;5054537;28;19920;-40
2022/07/20 07:30:52;;;;;;;;;;;;;;;40.04;24.83;98904.75;5053653;28;19922;-41
2022/07/20 07:33:19;;;;;;;;;;;;;;;39.79;25.11;98894.28;5054065;28;19916;-41
2022/07/20 07:35:44;;;;;;;;;;;;;;;40.69;24.82;98893.41;5054892;28;19986;-42
2022/07/20 07:38:09;;;;;;;;;;;;;;;40.43;24.73;98891.38;5054334;28;20312;-40
2022/07/20 07:40:35;;;;;;;;;;;;;;;41.08;24.27;98890.69;5053854;28;20429;-40
2022/07/20 07:43:00;;;;;;;;;;;;;;;41.01;24.88;98890.03;5054353;28;19951;-40
2022/07/20 07:45:25;;;;;;;;;;;;;;;41.39;24.40;98893.75;5053216;28;19923;-40
2022/07/20 07:47:51;;;;;;;;;;;;;;;41.79;24.44;98895.31;5054688;28;19927;-40
2022/07/20 07:50:16;;;;;;;;;;;;;;;41.54;24.47;98896.63;5052240;28;19923;-40
2022/07/20 07:52:41;;;;;;;;;;;;;;;40.52;24.98;98911.47;5052393;28;19958;-41
2022/07/20 07:55:06;;;;;;;;;;;;;;;41.66;25.19;98901.94;5054556;28;19923;-41
2022/07/20 07:57:32;;;;;;;;;;;;;;;41.23;24.53;98903.56;5053788;28;19916;-41
2022/07/20 07:59:57;;;;;;;;;;;;;;;40.34;25.23;98896.34;5053864;28;20038;-41
2022/07/20 08:02:22;;;;;;;;;;;;;;;40.55;25.60;98910.97;5054387;28;19922;-42
2022/07/20 08:04:48;;;;;;;;;;;;;;;41.06;24.61;98911.72;5054076;28;20010;-40
2022/07/20 08:07:13;;;;;;;;;;;;;;;40.93;25.09;98912.91;5053487;28;19920;-40
2022/07/20 08:09:38;;;;;;;;;;;;;;;41.81;23.96;98906.69;5053886;28;20286;-40
2022/07/20 08:12:03;;;;;;;;;;;;;;;42.44;24.37;98919.69;5053629;28;19916;-41
2022/07/20 08:14:29;;;;;;;;;;;;;;;42.19;23.80;98918.41;5054604;28;20635;-41
2022/07/20 08:16:54;;;;;;;;;;;;;;;42.10;23.77;98925.34;5053642;28;20328;-40
2022/07/20 08:19:19;;;;;;;;;;;;;;;41.17;24.10;98918.09;5053607;28;20495;-40
2022/07/20 08:21:44;;;;;;;;;;;;;;;42.42;23.69;98928.88;5053927;28;20008;-40
2022/07/20 08:24:10;;;;;;;;;;;;;;;41.90;24.34;98926.78;5054014;28;19962;-40
2022/07/20 08:26:35;;;;;;;;;;;;;;;41.19;25.36;98937.56;5053364;28;19956;-40
2022/07/20 08:29:00;;;;;;;;;;;;;;;42.51;24.62;98931.13;5052755;28;19917;-40
2022/07/20 08:31:26;;;;;;;;;;;;;;;41.73;24.10;98936.88;5053628;28;20000;-40
2022/07/20 08:33:51;;;;;;;;;;;;;;;41.23;26.21;98940.59;5053692;28;19963;-41
2022/07/20 08:36:16;;;;;;;;;;;;;;;41.69;25.29;98946.56;5053117;28;19920;-41
2022/07/20 08:38:41;;;;;;;;;;;;;;;41.07;25.57;98944.97;5053748;28;19924;-41
2022/07/20 08:41:07;;;;;;;;;;;;;;;40.13;25.70;98962.63;5053135;28;19916;-40
2022/07/20 08:43:32;;;;;;;;;;;;;;;40.33;25.91;98965.69;5053495;28;19924;-40
2022/07/20 08:45:58;;;;;;;;;;;;;;;41.94;25.33;98964.94;5053491;28;19920;-40
2022/07/20 08:48:23;;;;;;;;;;;;;;;38.77;26.50;98965.69;5051988;28;19916;-40
2022/07/20 08:50:48;;;;;;;;;;;;;;;40.24;25.51;98974.41;5051352;28;19923;-40
2022/07/20 08:53:14;;;;;;;;;;;;;;;40.12;26.36;98978.00;5053311;28;20326;-40
2022/07/20 08:55:39;;;;;;;;;;;;;;;41.64;25.02;98973.56;5053521;28;19921;-40
2022/07/20 08:58:04;;;;;;;;;;;;;;;39.39;26.77;98990.31;5055998;28;19943;-40
2022/07/20 09:00:29;;;;;;;;;;;;;;;39.71;26.91;98992.53;5057295;28;19990;-40
2022/07/20 09:03:02;;;;;;;;;;;;;;;39.80;27.05;98996.50;5056833;28;20442;-40
2022/07/20 09:05:28;;;;;;;;;;;;;;;37.31;29.36;99016.84;5056792;28;19916;-40
2022/07/20 09:07:55;;;;;;;;;;;;;;;36.94;30.46;99020.25;5057793;28;19956;-40
2022/07/20 09:10:20;;;;;;;;;;;;;;;37.97;30.67;99020.66;5056842;28;19916;-40
2022/07/20 09:12:50;;;;;;;;;;;;;;;36.31;32.27;99031.00;5057535;28;20030;-40
2022/07/20 09:15:25;;;;;;;;;;;;;;;37.34;32.61;99027.13;5056366;28;19916;-40
2022/07/20 09:18:00;;;;;;;;;;;;;;;37.24;32.95;99035.69;5056733;28;20066;-40
2022/07/20 09:20:29;;;;;;;;;;;;;;;35.90;35.12;99040.25;5057093;28;19973;-39
2022/07/20 09:22:55;;;;;;;;;;;;;;;36.13;35.84;99040.59;5055357;28;19966;-40
2022/07/20 09:25:22;;;;;;;;;;;;;;;37.00;35.53;99042.72;5055603;28;20289;-40
2022/07/20 09:27:47;;;;;;;;;;;;;;;36.31;35.91;99047.94;5057135;28;19916;-40
2022/07/20 09:30:14;;;;;;;;;;;;;;;36.03;36.66;99058.97;5056560;28;19916;-40
2022/07/20 09:32:53;;;;;;;;;;;;;;;36.18;39.06;99051.50;5057164;28;19939;-40
2022/07/20 09:35:23;;;;;;;;;;;;;;;35.98;37.60;99053.41;5056380;28;19925;-40
2022/07/20 09:37:48;;;;;;;;;;;;;;;36.55;37.33;99046.31;5056768;28;19921;-40
2022/07/20 09:40:13;;;;;;;;;;;;;;;35.22;40.13;99045.94;5055145;28;19932;-40
2022/07/20 09:42:40;;;;;;;;;;;;;;;36.01;39.97;99052.97;5055799;28;20869;-40
2022/07/20 09:45:18;;;;;;;;;;;;;;;35.17;41.55;99050.09;5056303;28;20404;-40
2022/07/20 09:48:02;;;;;;;;;;;;;;;36.05;40.24;99050.72;5055560;28;20029;-40
2022/07/20 09:50:30;;;;;;;;;;;;;;;36.49;39.39;99059.78;5055405;28;19923;-40
2022/07/20 09:52:56;;;;;;;;;;;;;;;37.21;37.96;99060.31;5054789;28;20354;-39
2022/07/20 09:55:22;;;;;;;;;;;;;;;39.03;35.40;99058.69;5055859;28;19920;-40
2022/07/20 09:57:47;;;;;;;;;;;;;;;37.67;38.88;99059.06;5054624;28;19917;-40
2022/07/20 10:00:13;;;;;;;;;;;;;;;37.14;39.22;99055.00;5054394;28;20785;-40
2022/07/20 10:02:38;;;;;;;;;;;;;;;35.78;40.75;99056.97;5056385;28;20019;-40
2022/07/20 10:05:04;;;;;;;;;;;;;;;35.37;43.68;99065.31;5053787;28;19917;-40
2022/07/20 10:07:29;;;;;;;;;;;;;;;34.96;44.34;99069.81;5055057;28;19967;-39
2022/07/20 10:09:54;;;;;;;;;;;;;;;35.68;43.38;99066.53;5054445;28;19962;-40
2022/07/20 10:12:19;;;;;;;;;;;;;;;36.85;41.89;99053.78;5054923;28;20397;-40
2022/07/20 10:14:45;;;;;;;;;;;;;;;36.67;42.23;99051.03;5055630;28;20010;-40
2022/07/20 10:17:10;;;;;;;;;;;;;;;36.75;42.30;99054.28;5054065;28;19920;-40
2022/07/20 10:19:42;;;;;;;;;;;;;;;37.51;39.38;99048.88;5053518;28;19939;-39
2022/07/20 10:22:08;;;;;;;;;;;;;;;35.66;41.22;99058.69;5056268;28;19917;-40
2022/07/20 10:24:35;;;;;;;;;;;;;;;34.63;44.16;99066.31;5054671;28;19924;-40
2022/07/20 10:27:16;;;;;;;;;;;;;;;36.43;40.73;99053.44;5055850;28;19917;-40
2022/07/20 10:29:41;;;;;;;;;;;;;;;35.87;41.54;99054.09;5054597;28;19923;-40
2022/07/20 10:32:09;;;;;;;;;;;;;;;35.81;41.12;99053.91;5053482;28;19947;-39
2022/07/20 10:34:36;;;;;;;;;;;;;;;36.28;41.67;99055.56;5055418;28;19917;-39
2022/07/20 10:37:20;;;;;;;;;;;;;;;35.39;40.30;99048.00;5055747;28;19987;-40
2022/07/20 10:39:47;;;;;;;;;;;;;;;36.25;39.44;99050.66;5055024;28;19912;-39
2022/07/20 10:42:33;;;;;;;;;;;;;;;36.20;39.97;99044.06;5055607;28;19966;-40
2022/07/20 10:45:14;;;;;;;;;;;;;;;36.80;37.84;99046.38;5055235;28;19916;-40
2022/07/20 10:47:47;;;;;;;;;;;;;;;37.22;38.47;99045.84;5055313;28;19916;-39
2022/07/20 10:50:19;;;;;;;;;;;;;;;36.44;39.37;99044.34;5054609;28;20304;-40
2022/07/20 10:52:48;;;;;;;;;;;;;;;36.91;38.59;99042.19;5054748;28;19928;-40
2022/07/20 10:55:31;;;;;;;;;;;;;;;37.54;38.56;99045.72;5055196;28;19916;-40
2022/07/20 10:57:57;;;;;;;;;;;;;;;38.06;36.64;99046.19;5054539;28;19923;-40
2022/07/20 11:00:22;;;;;;;;;;;;;;;38.01;36.58;99049.56;5053893;28;19921;-39
2022/07/20 11:02:47;;;;;;;;;;;;;;;38.25;37.02;99055.88;5054027;28;19920;-39
2022/07/20 11:05:19;;;;;;;;;;;;;;;38.61;35.11;99050.63;5054471;28;20087;-40
2022/07/20 11:07:45;;;;;;;;;;;;;;;39.11;34.72;99052.94;5054779;28;19969;-40
2022/07/20 11:10:24;;;;;;;;;;;;;;;38.52;35.34;99049.31;5054247;28;20354;-40
2022/07/20 11:12:55;;;;;;;;;;;;;;;38.27;36.12;99048.41;5054927;28;19930;-40
2022/07/20 11:15:21;;;;;;;;;;;;;;;37.43;35.87;99048.13;5053624;28;19923;-40
2022/07/20 11:17:46;;;;;;;;;;;;;;;37.60;36.46;99047.56;5054966;28;19916;-40
2022/07/20 11:20:15;;;;;;;;;;;;;;;37.64;36.69;99054.94;5053607;28;19959;-40
2022/07/20 11:22:40;;;;;;;;;;;;;;;37.72;37.38;99045.75;5054488;28;19962;-40
2022/07/20 11:25:06;;;;;;;;;;;;;;;37.75;37.59;99049.84;5056018;28;20694;-40
2022/07/20 11:27:31;;;;;;;;;;;;;;;38.23;35.81;99039.16;5054160;28;19992;-40
2022/07/20 11:29:56;;;;;;;;;;;;;;;38.05;36.40;99039.19;5051341;28;19942;-39
2022/07/20 11:32:21;;;;;;;;;;;;;;;37.30;36.19;99040.19;5054567;28;20236;-40
2022/07/20 11:34:52;;;;;;;;;;;;;;;38.39;36.04;99044.91;5054412;28;19916;-39
2022/07/20 11:37:18;;;;;;;;;;;;;;;38.40;35.78;99035.81;5054193;28;20519;-39
2022/07/20 11:39:43;;;;;;;;;;;;;;;39.71;34.61;99043.75;5053194;28;19924;-40
2022/07/20 11:42:15;;;;;;;;;;;;;;;40.31;33.62;99035.28;5052506;28;19916;-40
2022/07/20 11:44:41;;;;;;;;;;;;;;;38.22;36.34;99045.56;5053555;28;20031;-39
2022/07/20 11:47:06;;;;;;;;;;;;;;;37.64;36.49;99051.44;5054174;28;20427;-39
2022/07/20 11:49:32;;;;;;;;;;;;;;;37.74;37.01;99046.34;5054203;28;20407;-40
2022/07/20 11:52:03;;;;;;;;;;;;;;;38.60;36.77;99040.94;5053560;28;19965;-40
2022/07/20 11:54:32;;;;;;;;;;;;;;;38.76;35.85;99040.25;5054363;28;19982;-40
2022/07/20 11:56:58;;;;;;;;;;;;;;;38.82;34.81;99038.50;5051955;28;19921;-40
2022/07/20 11:59:23;;;;;;;;;;;;;;;40.17;32.71;99023.13;5053131;28;19927;-40
2022/07/20 12:01:49;;;;;;;;;;;;;;;38.85;34.92;99027.28;5053653;28;19927;-39
2022/07/20 12:04:14;;;;;;;;;;;;;;;39.24;33.84;99024.97;5053941;28;19920;-39
2022/07/20 12:06:40;;;;;;;;;;;;;;;39.57;34.72;99028.91;5054113;28;20000;-40
2022/07/20 12:09:13;;;;;;;;;;;;;;;39.51;34.52;99026.13;5053398;28;19923;-40
2022/07/20 12:11:53;;;;;;;;;;;;;;;38.55;34.35;99030.84;5052133;28;19999;-40
2022/07/20 12:14:33;;;;;;;;;;;;;;;39.14;36.80;99022.03;5054170;28;19921;-40
2022/07/20 12:17:18;;;;;;;;;;;;;;;39.14;35.28;99014.78;5052186;28;20007;-40
2022/07/20 12:19:44;;;;;;;;;;;;;;;38.21;36.22;99019.72;5052746;28;19923;-40
2022/07/20 12:22:23;;;;;;;;;;;;;;;38.84;34.52;99014.84;5054033;28;20382;-40
2022/07/20 12:24:51;;;;;;;;;;;;;;;41.14;32.18;99013.97;5053551;28;19930;-39
2022/07/20 12:27:16;;;;;;;;;;;;;;;40.34;34.00;99007.81;5053896;28;19916;-40
2022/07/20 12:29:42;;;;;;;;;;;;;;;40.16;32.88;99010.69;5052999;28;20460;-40
2022/07/20 12:32:08;;;;;;;;;;;;;;;40.25;33.78;99000.31;5053189;28;19948;-40
2022/07/20 12:35:00;;;;;;;;;;;;;;;38.65;35.35;99003.38;5052330;28;19916;-40
2022/07/20 12:37:28;;;;;;;;;;;;;;;40.62;32.41;99008.81;5051222;28;19960;-40
2022/07/20 12:39:53;;;;;;;;;;;;;;;39.76;35.29;99016.09;5051423;28;19952;-40
2022/07/20 12:42:23;;;;;;;;;;;;;;;38.20;35.29;99004.63;5053759;28;19999;-40
2022/07/20 12:44:57;;;;;;;;;;;;;;;39.64;34.07;98999.94;5052844;28;19916;-40
2022/07/20 12:47:22;;;;;;;;;;;;;;;40.52;33.42;99003.25;5053250;28;20636;-40
2022/07/20 12:49:47;;;;;;;;;;;;;;;40.80;32.51;98998.84;5052600;28;20096;-40